• Join FlightAware (Why Join?)
  • Login
  • US Flag 
 
09:28PM EST


 

Airport Tracker/Info


-or-


 

Live Flight TrackerFlight Track Log ✈ UPS1337 ✈ 11-Sep-2013 ✈ KPIE - KSDF

Flight Track Log - Related Links

Times and Time Zones

All times are in EDT time to prevent confusion due to time zone crossing. See the UPS1337 flight status page for this flight to view local times or setup timezone preferences in your user account.

Time Position Orientation Groundspeed Altitude Reporting Facility
EDT Latitude Longitude Course Direction KTS MPH feet Rate Location/Type
09:42PM 27.8880 -82.6850 175° South 160 184 1,300  Level FlightAware
09:42PM 27.8720 -82.6840 177° South 175 201 2,200 2,160 Climbing FlightAware
09:43PM 27.8430 -82.6810 175° South 230 265 3,100 1,920 Climbing FlightAware
09:43PM 27.8310 -82.6820 184° South 248 285 3,500 2,400 Climbing FlightAware
09:43PM 27.8250 -82.6840 196° South 259 298 3,700 1,800 Climbing FlightAware
09:43PM 27.8200 -82.6870 208° Southwest 259 298 3,800 2,400 Climbing FlightAware
09:43PM 27.8100 -82.6960 219° Southwest 274 315 4,300 3,180 Climbing FlightAware
09:43PM 27.8060 -82.7010 228° Southwest 277 319 4,600 3,600 Climbing FlightAware
09:43PM 27.8020 -82.7070 233° Southwest 285 328 4,900 3,960 Climbing FlightAware
09:43PM 27.7980 -82.7210 252° West 284 327 5,600 3,900 Climbing FlightAware
09:44PM 27.7960 -82.7360 261° West 290 334 6,200 3,540 Climbing FlightAware
09:44PM 27.8120 -82.7720 297° West 296 341 7,800 3,720 Climbing FlightAware
09:44PM 27.8230 -82.7800 327° Northwest 297 342 8,400 3,960 Climbing FlightAware
09:44PM 27.8280 -82.7830 332° Northwest 297 342 8,600 3,480 Climbing FlightAware
09:44PM 27.8390 -82.7860 346° North 296 341 9,100 3,420 Climbing FlightAware
09:44PM 27.8470 -82.7860 360° North 296 341 9,400 3,180 Climbing FlightAware
09:45PM 27.8780 -82.7840 North 309 356 10,600 2,160 Climbing FlightAware
09:45PM 27.9330 -82.7790 North 358 412 11,500 1,140 Climbing FlightAware
09:46PM 27.9870 -82.7730 North 390 449 11,900 1,200 Climbing FlightAware
09:47PM 28.0550 -82.7660 North 392 451 12,900 1,980 Climbing FlightAware
09:47PM 28.1000 -82.7700 356° North 401 461 14,100 2,820 Climbing FlightAware
09:48PM 28.1750 -82.7820 352° North 412 474 16,000 2,880 Climbing FlightAware
09:48PM 28.2410 -82.7900 354° North 418 481 17,600 2,700 Climbing FlightAware
09:49PM 28.3070 -82.7990 353° North 424 488 19,100 2,580 Climbing FlightAware
09:49PM 28.3800 -82.8080 354° North 430 495 20,600 2,460 Climbing FlightAware
09:50PM 28.4490 -82.8170 353° North 435 501 22,100 2,280 Climbing FlightAware
09:51PM 28.5130 -82.8260 353° North 439 505 23,200 2,040 Climbing FlightAware
09:51PM 28.5900 -82.8360 353° North 448 516 24,500 1,860 Climbing FlightAware
09:52PM 28.6660 -82.8470 353° North 458 527 25,500 1,620 Climbing FlightAware
09:52PM 28.7360 -82.8560 354° North 465 535 26,400 1,620 Climbing FlightAware
09:53PM 28.8080 -82.8660 353° North 469 540 27,300 1,800 Climbing FlightAware
09:53PM 28.8890 -82.8770 353° North 467 537 28,600 2,040 Climbing FlightAware
09:54PM 28.9590 -82.8860 354° North 465 535 29,700 1,920 Climbing FlightAware
09:55PM 29.0340 -82.8960 353° North 463 533 30,800 1,500 Climbing FlightAware
09:55PM 29.1110 -82.9070 353° North 460 529 31,500 840 Climbing FlightAware
09:56PM 29.1890 -82.9170 354° North 464 534 31,900 420 Climbing FlightAware
09:56PM 29.2540 -82.9260 353° North 465 535 32,000 60 Climbing FlightAware
09:57PM 29.3330 -82.9370 353° North 461 531 32,000  Level FlightAware
09:58PM 29.4050 -82.9460 354° North 458 527 32,000 60 Level FlightAware
09:58PM 29.4890 -82.9570 353° North 457 526 32,100 420 Climbing FlightAware
09:59PM 29.5520 -82.9660 353° North 454 522 32,500 840 Climbing FlightAware
09:59PM 29.6280 -82.9770 353° North 452 520 33,100 960 Climbing FlightAware
10:00PM 29.7010 -82.9870 353° North 453 521 33,700 720 Climbing FlightAware
10:00PM 29.7770 -82.9970 353° North 456 525 34,000 240 Climbing FlightAware
10:01PM 29.8450 -83.0060 353° North 454 522 34,000  Level FlightAware
10:02PM 29.9390 -83.0190 353° North 449 517 34,000  Level FlightAware
10:02PM 30.0160 -83.0300 353° North 450 518 34,000  Level FlightAware
10:03PM 30.0770 -83.0380 354° North 451 519 34,000  Level FlightAware
10:04PM 30.1560 -83.0490 353° North 451 519 34,000  Level FlightAware
10:04PM 30.2280 -83.0590 353° North 447 514 34,000  Level FlightAware
10:05PM 30.2890 -83.0680 353° North 447 514 34,000  Level FlightAware
10:05PM 30.3700 -83.0790 353° North 446 513 34,000  Level FlightAware
10:06PM 30.4420 -83.0890 353° North 447 514 34,000  Level FlightAware
10:06PM 30.5170 -83.0990 353° North 446 513 34,000  Level FlightAware
10:07PM 30.5900 -83.1090 353° North 444 511 34,000  Level FlightAware
10:08PM 30.6570 -83.1180 353° North 443 510 34,000  Level FlightAware
10:08PM 30.7260 -83.1280 353° North 443 510 34,000  Level FlightAware
10:09PM 30.8030 -83.1390 353° North 444 511 34,000  Level FlightAware
10:09PM 30.8770 -83.1490 353° North 445 512 34,000  Level FlightAware
10:10PM 30.9410 -83.1580 353° North 444 511 34,000  Level FlightAware
10:11PM 31.0150 -83.1690 353° North 442 509 34,000  Level FlightAware
10:11PM 31.0800 -83.1780 353° North 442 509 34,000  Level FlightAware
10:12PM 31.1600 -83.1890 353° North 441 507 34,000  Level FlightAware
10:12PM 31.2280 -83.1990 353° North 441 507 34,000  Level FlightAware
10:13PM 31.2920 -83.2080 353° North 442 509 34,000  Level FlightAware
10:13PM 31.3740 -83.2190 353° North 440 506 34,000  Level FlightAware
10:14PM 31.4530 -83.2300 353° North 442 509 34,000  Level FlightAware
10:15PM 31.5270 -83.2410 353° North 441 507 34,000  Level FlightAware
10:16PM 31.6280 -83.2550 353° North 441 507 34,000  Level FlightAware
10:17PM 31.7400 -83.2720 353° North 440 506 34,000  Level FlightAware
10:17PM 31.8020 -83.2830 351° North 440 506 34,000  Level FlightAware
10:18PM 31.8640 -83.2930 352° North 440 506 34,000  Level FlightAware
10:18PM 31.9270 -83.3030 352° North 440 506 34,000  Level FlightAware
10:19PM 32.0410 -83.3140 355° North 439 505 34,000  Level FlightAware
10:19PM 32.1020 -83.3230 353° North 440 506 34,000  Level FlightAware
10:20PM 32.1650 -83.3340 352° North 440 506 34,000  Level FlightAware
10:21PM 32.2630 -83.3460 354° North 441 507 34,000  Level FlightAware
10:21PM 32.3340 -83.3570 353° North 442 509 34,000  Level FlightAware
10:22PM 32.4020 -83.3660 354° North 441 507 34,000  Level FlightAware
10:23PM 32.4770 -83.3780 352° North 441 507 34,000  Level FlightAware
10:23PM 32.5400 -83.3870 353° North 444 511 34,000  Level FlightAware
10:24PM 32.6050 -83.3960 353° North 443 510 34,000  Level FlightAware
10:24PM 32.6950 -83.4090 353° North 441 507 34,000  Level FlightAware
10:25PM 32.7600 -83.4190 353° North 441 507 34,000  Level FlightAware
10:26PM 32.8550 -83.4330 353° North 441 507 34,000  Level FlightAware
10:26PM 32.9340 -83.4440 353° North 443 510 34,000  Level FlightAware
10:27PM 33.0070 -83.4550 353° North 443 510 34,000  Level FlightAware
10:27PM 33.0720 -83.4640 353° North 444 511 34,000  Level FlightAware
10:28PM 33.1460 -83.4750 353° North 446 513 34,000  Level FlightAware
10:29PM 33.2170 -83.4850 353° North 447 514 34,000  Level FlightAware
10:29PM 33.2940 -83.4970 353° North 446 513 34,000  Level FlightAware
10:30PM 33.3670 -83.5080 353° North 447 514 34,000  Level FlightAware
10:30PM 33.4310 -83.5170 353° North 449 517 34,000  Level FlightAware
10:31PM 33.5040 -83.5280 353° North 449 517 34,000  Level FlightAware
10:32PM 33.5810 -83.5390 353° North 446 513 34,000  Level FlightAware
10:32PM 33.6440 -83.5490 352° North 446 513 34,000  Level FlightAware
10:33PM 33.7150 -83.5590 353° North 446 513 34,000  Level FlightAware
10:33PM 33.7940 -83.5710 353° North 450 518 34,000  Level FlightAware
10:34PM 33.8690 -83.5820 353° North 448 516 34,000  Level FlightAware
10:34PM 33.9320 -83.5920 352° North 447 514 34,000  Level FlightAware
10:35PM 34.0080 -83.6030 353° North 447 514 34,000  Level FlightAware
10:36PM 34.0840 -83.6140 353° North 448 516 34,000  Level FlightAware
10:36PM 34.1093 -83.6183 352° North 449 517 34,000  Level FlightAware ADS-B
10:37PM 34.2200 -83.6350 353° North 450 518 34,000  Level FlightAware
10:37PM 34.2678 -83.6423 353° North 450 518 34,000  Level FlightAware ADS-B
10:38PM 34.3318 -83.6520 353° North 451 519 34,000  Level FlightAware ADS-B
10:38PM 34.3956 -83.6616 353° North 450 518 34,000  Level FlightAware ADS-B
10:39PM 34.5180 -83.6800 353° North 448 516 34,000  Level FlightAware
10:39PM 34.5356 -83.6829 352° North 449 517 34,000  Level FlightAware ADS-B
10:40PM 34.6012 -83.6929 353° North 450 518 34,000  Level FlightAware ADS-B
10:40PM 34.6649 -83.7026 353° North 450 518 34,000  Level FlightAware ADS-B
10:41PM 34.7330 -83.7130 353° North 449 517 34,000  Level FlightAware
10:41PM 34.7822 -83.7205 353° North 452 520 34,000  Level FlightAware ADS-B
10:42PM 34.8714 -83.7342 353° North 454 522 34,000  Level FlightAware ADS-B
10:43PM 34.9440 -83.7450 353° North 452 520 34,000  Level FlightAware
10:43PM 35.0120 -83.7560 352° North 451 519 34,000  Level FlightAware
10:44PM 35.0765 -83.7657 353° North 453 521 34,000  Level FlightAware ADS-B
10:44PM 35.1428 -83.7760 353° North 455 524 34,000  Level FlightAware ADS-B
10:45PM 35.2067 -83.7860 353° North 456 525 34,000  Level FlightAware ADS-B
10:45PM 35.3050 -83.8010 353° North 456 525 34,000  Level FlightAware
10:46PM 35.3490 -83.8079 353° North 458 527 34,000  Level FlightAware ADS-B
10:46PM 35.4180 -83.8186 353° North 457 526 34,000  Level FlightAware ADS-B
10:47PM 35.4849 -83.8290 353° North 457 526 34,000  Level FlightAware ADS-B
10:48PM 35.6227 -83.8504 353° North 459 528 34,000  Level FlightAware ADS-B
10:48PM 35.6878 -83.8606 353° North 461 531 34,000  Level FlightAware ADS-B
10:49PM 35.7575 -83.8716 353° North 462 532 34,000  Level FlightAware ADS-B
10:50PM 35.8310 -83.8840 352° North 462 532 34,000  Level FlightAware
10:50PM 35.8958 -83.9017 348° North 463 533 34,000  Level FlightAware ADS-B
10:51PM 35.9482 -83.9236 341° North 462 532 34,000  Level FlightAware ADS-B
10:51PM 36.0182 -83.9628 336° Northwest 463 533 34,000 -480 Level FlightAware ADS-B
10:52PM 36.1100 -84.0170 335° Northwest 461 531 33,400 -960 Descending FlightAware
10:52PM 36.1507 -84.0413 334° Northwest 462 532 32,900 -1,500 Descending FlightAware ADS-B
10:53PM 36.2137 -84.0789 334° Northwest 466 536 32,100 -1,500 Descending FlightAware ADS-B
10:53PM 36.2744 -84.1151 334° Northwest 468 539 31,300 -1,320 Descending FlightAware ADS-B
10:54PM 36.3830 -84.1800 334° Northwest 457 526 30,200 -1,140 Descending FlightAware
10:54PM 36.4036 -84.1927 334° Northwest 449 517 30,100 -300 Descending FlightAware ADS-B
10:55PM 36.4597 -84.2265 334° Northwest 439 505 30,000 -120 Descending FlightAware ADS-B
10:55PM 36.5148 -84.2597 334° Northwest 438 504 30,000 -720 Level FlightAware ADS-B
10:56PM 36.6000 -84.3110 334° Northwest 435 501 29,100 -1,200 Descending FlightAware
10:57PM 36.6376 -84.3335 334° Northwest 429 494 28,600 -1,500 Descending FlightAware ADS-B
10:57PM 36.6956 -84.3683 334° Northwest 424 488 27,800 -1,620 Descending FlightAware ADS-B
10:58PM 36.7502 -84.4012 334° Northwest 420 483 27,000 -1,560 Descending FlightAware ADS-B
10:58PM 36.8040 -84.4340 334° Northwest 417 480 26,200 -1,740 Descending FlightAware
10:59PM 36.8646 -84.4701 335° Northwest 412 474 25,000 -2,160 Descending FlightAware ADS-B
10:59PM 36.9200 -84.5037 334° Northwest 404 465 23,800 -2,280 Descending FlightAware ADS-B
11:00PM 36.9720 -84.5351 334° Northwest 400 460 22,700 -2,220 Descending FlightAware ADS-B
11:01PM 37.0600 -84.5890 334° Northwest 390 449 20,700 -2,220 Descending FlightAware
11:01PM 37.0846 -84.6036 335° Northwest 388 447 20,200 -2,220 Descending FlightAware ADS-B
11:01PM 37.1336 -84.6334 334° Northwest 384 442 19,000 -2,220 Descending FlightAware ADS-B
11:02PM 37.1813 -84.6625 334° Northwest 380 437 18,000 -1,980 Descending FlightAware ADS-B
11:03PM 37.2330 -84.6940 334° Northwest 374 430 16,900 -1,680 Descending FlightAware
11:03PM 37.2719 -84.7178 334° Northwest 365 420 16,000 -2,040 Descending FlightAware ADS-B
11:04PM 37.3620 -84.7730 334° Northwest 351 404 14,000 -1,920 Descending FlightAware
11:05PM 37.4090 -84.8020 334° Northwest 329 379 13,500 -960 Descending FlightAware
11:05PM 37.4570 -84.8320 334° Northwest 308 354 12,900 -1,320 Descending FlightAware
11:06PM 37.5010 -84.8590 334° Northwest 301 346 12,000 -1,500 Descending FlightAware
11:06PM 37.5460 -84.8860 335° Northwest 293 337 11,200 -1,020 Descending FlightAware
11:07PM 37.5870 -84.9110 334° Northwest 287 330 10,800 -1,200 Descending FlightAware
11:07PM 37.6200 -84.9320 333° Northwest 288 331 10,000 -1,800 Descending FlightAware
11:08PM 37.6450 -84.9470 335° Northwest 287 330 9,400 -1,620 Descending FlightAware
11:08PM 37.6560 -84.9560 327° Northwest 286 329 9,200 -1,500 Descending FlightAware
11:08PM 37.6630 -84.9650 314° West 285 328 9,000 -1,500 Descending FlightAware
11:08PM 37.6810 -84.9890 313° West 280 322 8,500 -1,380 Descending FlightAware
11:09PM 37.6970 -85.0120 311° West 278 320 8,100 -840 Descending FlightAware
11:09PM 37.7190 -85.0420 313° West 276 318 7,900 -300 Descending FlightAware
11:09PM 37.7340 -85.0620 313° West 276 318 7,900 -480 Level FlightAware
11:10PM 37.7540 -85.0890 313° West 273 314 7,600 -1,200 Descending FlightAware
11:10PM 37.7690 -85.1130 308° West 274 315 7,100 -1,500 Descending FlightAware
11:10PM 37.7740 -85.1250 298° West 274 315 6,900 -1,500 Descending FlightAware
11:10PM 37.7850 -85.1530 296° West 271 312 6,400 -1,500 Descending FlightAware
11:11PM 37.7980 -85.1880 295° West 270 311 5,800 -1,500 Descending FlightAware
11:11PM 37.8090 -85.2170 296° West 269 310 5,300 -840 Descending FlightAware
11:12PM 37.8260 -85.2640 295° West 267 307 5,000 -840 Descending FlightAware
11:13PM 37.8600 -85.3520 296° West 267 307 3,900 -960 Descending FlightAware
11:13PM 37.8730 -85.3860 296° West 269 310 3,700 -720 Descending FlightAware
11:14PM 37.8860 -85.4200 296° West 267 307 3,400 -1,020 Descending FlightAware
11:14PM 37.8920 -85.4380 293° West 263 303 3,100 -960 Descending FlightAware
11:14PM 37.9020 -85.4660 294° West 257 296 2,900 -300 Descending FlightAware
11:15PM 37.9140 -85.4960 297° West 256 295 2,900  Level FlightAware
11:15PM 37.9230 -85.5200 295° West 247 284 2,900  Level FlightAware
11:15PM 37.9330 -85.5490 294° West 232 267 2,900  Level FlightAware
11:16PM 37.9380 -85.5620 296° West 228 262 2,900  Level FlightAware
11:16PM 37.9480 -85.5890 295° West 218 251 2,900  Level FlightAware
11:16PM 37.9550 -85.6130 290° West 208 239 2,900  Level FlightAware
11:17PM 37.9640 -85.6340 299° West 197 227 2,900  Level FlightAware
11:17PM 37.9700 -85.6420 314° West 193 222 2,900  Level FlightAware
11:17PM 37.9760 -85.6500 314° West 193 222 2,900  Level FlightAware
11:17PM 37.9880 -85.6610 324° Northwest 192 221 2,900  Level FlightAware
11:17PM 37.9940 -85.6650 332° Northwest 193 222 2,900  Level FlightAware
11:18PM 38.0080 -85.6700 344° North 184 212 2,900  Level FlightAware
11:18PM 38.0360 -85.6800 344° North 170 196 2,900 -420 Level FlightAware
11:18PM 38.0490 -85.6840 346° North 172 198 2,600 -900 Descending FlightAware
11:19PM 38.0660 -85.6900 344° North 162 186 2,300 -840 Descending FlightAware
11:19PM 38.0830 -85.6960 344° North 146 168 2,000 -720 Descending FlightAware
11:19PM 38.0950 -85.7000 345° North 135 155 1,800 -780 Descending FlightAware
11:20PM 38.1030 -85.7030 344° North 139 160 1,600 -840 Descending FlightAware
11:20PM 38.1170 -85.7070 347° North 137 158 1,300 -720 Descending FlightAware
11:20PM 38.1300 -85.7120 343° North 140 161 1,100 -780 Descending FlightAware
11:21PM 38.1430 -85.7160 346° North 141 162 800 -840 Descending FlightAware
11:21PM 38.1530 -85.7200 343° North 140 161 600 -660 Descending FlightAware
11:21PM 38.1650 -85.7240 345° North 140 161 400 -600 Descending FlightAware